Time;durP1;ratioP1;P1;durP2;ratioP2;P2;SDS_P1;SDS_P2;PMS_P1;PMS_P2;Temp;Humidity;BMP_temperature;BMP_pressure;BME280_temperature;BME280_humidity;BME280_pressure;Samples;Min_cycle;Max_cycle;Signal;HPM_P1;HPM_P2
2024/04/17 00:02:11;;;;;;;;;6.00;6.00;;;;;10.02;100.00;97368.03;6342597;27;94877;-53
2024/04/17 00:05:19;;;;;;;;;5.80;5.40;;;;;9.89;100.00;97361.97;6310206;27;96871;-54
2024/04/17 00:08:22;;;;;;;;;3.80;3.80;;;;;9.88;100.00;97346.88;6339165;27;95169;-53
2024/04/17 00:11:28;;;;;;;;;6.00;5.00;;;;;9.92;100.00;97349.91;6314609;27;94476;-53
2024/04/17 00:14:32;;;;;;;;;8.00;7.25;;;;;9.93;100.00;97346.91;6342832;27;94315;-53
2024/04/17 00:17:37;;;;;;;;;5.20;4.20;;;;;9.91;100.00;97332.09;6364384;22;95565;-92
2024/04/17 00:20:45;;;;;;;;;4.00;3.20;;;;;9.78;100.00;97319.03;6344419;27;94604;-91
2024/04/17 00:23:51;;;;;;;;;3.40;3.00;;;;;9.88;100.00;97327.22;6342853;27;94880;-92
2024/04/17 00:26:54;;;;;;;;;5.50;4.50;;;;;9.88;100.00;97316.44;6345804;22;97109;-91
2024/04/17 00:30:00;;;;;;;;;5.00;4.00;;;;;9.93;100.00;97322.69;6294413;27;94321;-91
2024/04/17 00:33:05;;;;;;;;;3.60;3.60;;;;;9.98;100.00;97321.94;6295279;27;96883;-91
2024/04/17 00:36:14;;;;;;;;;3.00;3.00;;;;;10.01;100.00;97324.13;6298366;27;94340;-91
2024/04/17 00:39:19;;;;;;;;;3.00;3.00;;;;;10.09;100.00;97314.75;6302001;27;97006;-82
2024/04/17 00:42:22;;;;;;;;;3.60;3.00;;;;;10.03;100.00;97300.44;6279022;27;95633;-82
2024/04/17 00:45:32;;;;;;;;;5.00;5.00;;;;;10.08;100.00;97303.16;6278753;27;97369;-82
2024/04/17 00:48:35;;;;;;;;;5.00;4.00;;;;;10.09;100.00;97296.72;6305030;27;96519;-81
2024/04/17 00:51:44;;;;;;;;;3.00;3.00;;;;;10.05;100.00;97290.22;6306511;27;94863;-82
2024/04/17 00:54:47;;;;;;;;;5.00;4.00;;;;;9.27;100.00;97161.75;6279508;27;96521;-82
2024/04/17 00:57:53;;;;;;;;;3.50;3.00;;;;;10.10;100.00;97300.22;6278863;27;94948;-82
2024/04/17 01:00:56;;;;;;;;;5.00;5.00;;;;;10.08;100.00;97303.16;6253925;27;98198;-83
2024/04/17 01:04:02;;;;;;;;;2.00;2.00;;;;;9.95;100.00;97285.59;6306609;27;94415;-82
2024/04/17 01:07:10;;;;;;;;;3.00;2.00;;;;;9.81;100.00;97267.41;6307246;27;94422;-82
2024/04/17 01:10:14;;;;;;;;;4.00;4.00;;;;;9.95;100.00;97303.59;6279225;27;97385;-82
2024/04/17 01:13:20;;;;;;;;;3.75;3.00;;;;;9.24;100.00;97176.50;6279168;27;97820;-82
2024/04/17 01:16:23;;;;;;;;;5.00;4.00;;;;;9.30;100.00;97196.19;6278351;27;94297;-83
2024/04/17 01:19:29;;;;;;;;;4.60;3.60;;;;;9.48;100.00;97239.66;6278116;27;97890;-82
2024/04/17 01:22:35;;;;;;;;;4.00;3.00;;;;;9.30;100.00;97182.75;6277054;27;94505;-82
2024/04/17 01:25:43;;;;;;;;;4.80;4.00;;;;;9.57;100.00;97223.91;6276613;27;96725;-82
2024/04/17 01:28:47;;;;;;;;;4.00;3.40;;;;;9.10;100.00;97153.78;6278396;27;94814;-82
2024/04/17 01:31:52;;;;;;;;;6.00;5.00;;;;;9.67;100.00;97239.31;6252448;27;97537;-83
2024/04/17 01:34:55;;;;;;;;;4.00;4.00;;;;;9.25;100.00;97155.81;6253110;27;96111;-83
2024/04/17 01:38:01;;;;;;;;;5.00;4.00;;;;;9.64;100.00;97256.75;6252945;27;97668;-82
2024/04/17 01:41:07;;;;;;;;;4.00;4.00;;;;;10.00;100.00;97282.94;6252636;27;97611;-83
2024/04/17 01:44:12;;;;;;;;;5.00;4.00;;;;;9.18;100.00;97160.59;6278835;27;96079;-83
2024/04/17 01:47:19;;;;;;;;;4.00;3.00;;;;;9.93;100.00;97276.94;6253128;27;95732;-82
2024/04/17 01:50:29;;;;;;;;;4.00;4.00;;;;;9.88;100.00;97268.00;6256664;27;97789;-82
2024/04/17 01:53:34;;;;;;;;;11.00;9.60;;;;;9.68;100.00;97246.28;6283045;27;94555;-82
2024/04/17 01:56:42;;;;;;;;;11.40;10.60;;;;;8.83;100.00;97159.19;6309166;27;94438;-82
2024/04/17 01:59:45;;;;;;;;;10.00;9.00;;;;;9.34;100.00;97243.00;6282221;27;94878;-82
2024/04/17 02:02:51;;;;;;;;;9.25;7.00;;;;;9.16;100.00;97222.69;6307517;27;97012;-82
2024/04/17 02:05:56;;;;;;;;;10.00;9.00;;;;;8.78;100.00;97177.13;6282564;27;97884;-82
2024/04/17 02:09:02;;;;;;;;;9.60;8.00;;;;;8.94;100.00;97241.50;6280771;27;96286;-82
2024/04/17 02:12:09;;;;;;;;;9.33;7.67;;;;;9.02;100.00;97248.34;6307892;27;97349;-83
2024/04/17 02:15:14;;;;;;;;;7.00;7.00;;;;;8.18;100.00;97143.03;6306873;27;96805;-83
2024/04/17 02:18:17;;;;;;;;;6.00;5.00;;;;;8.99;100.00;97251.53;6256297;27;96023;-82
2024/04/17 02:21:23;;;;;;;;;4.40;4.00;;;;;9.00;100.00;97263.88;6281759;27;96153;-83
2024/04/17 02:24:26;;;;;;;;;4.00;4.00;;;;;8.89;100.00;97246.84;6281410;27;96065;-83
2024/04/17 02:27:34;;;;;;;;;4.00;4.00;;;;;8.53;100.00;97173.06;6308629;27;94868;-84
2024/04/17 02:30:40;;;;;;;;;4.00;4.00;;;;;9.18;100.00;97255.50;6281365;27;94632;-82
2024/04/17 02:33:45;;;;;;;;;4.00;3.60;;;;;8.79;100.00;97190.31;6257060;27;97798;-84
2024/04/17 02:36:48;;;;;;;;;6.00;5.00;;;;;9.32;100.00;97259.44;6258858;27;95955;-83
2024/04/17 02:40:09;;;;;;;;;5.50;4.50;;;;;9.26;100.00;97241.59;6212802;28;97679;-82
2024/04/17 02:43:17;;;;;;;;;5.40;5.00;;;;;9.16;100.00;97229.94;6288061;22;97253;-83
2024/04/17 02:46:20;;;;;;;;;7.00;5.60;;;;;8.96;100.00;97191.03;6284890;27;97483;-83
2024/04/17 02:49:26;;;;;;;;;4.00;4.00;;;;;9.47;100.00;97258.78;6259255;27;97840;-82
2024/04/17 02:52:29;;;;;;;;;4.00;4.00;;;;;9.02;100.00;97190.00;6259161;27;97820;-83
2024/04/17 02:55:36;;;;;;;;;4.00;4.00;;;;;9.19;100.00;97197.19;6285184;27;94298;-81
2024/04/17 02:58:41;;;;;;;;;4.60;3.60;;;;;9.64;100.00;97237.94;6259319;27;97811;-80
2024/04/17 03:01:47;;;;;;;;;4.00;4.00;;;;;9.77;100.00;97221.38;6284792;27;96317;-79
2024/04/17 03:04:54;;;;;;;;;4.00;4.00;;;;;9.88;100.00;97228.44;6417411;22;97598;-82
2024/04/17 03:08:00;;;;;;;;;3.75;3.75;;;;;10.09;100.00;97247.44;6337030;27;96975;-82
2024/04/17 03:11:06;;;;;;;;;5.00;4.00;;;;;9.77;100.00;97181.00;6311950;27;97685;-81
2024/04/17 03:14:13;;;;;;;;;4.00;3.00;;;;;10.08;100.00;97219.72;6285754;27;94336;-80
2024/04/17 03:17:19;;;;;;;;;5.00;5.00;;;;;9.64;100.00;97156.41;6335874;27;97925;-79
2024/04/17 03:20:23;;;;;;;;;4.20;3.80;;;;;9.21;100.00;97064.09;6337616;27;94562;-81
2024/04/17 03:23:28;;;;;;;;;5.00;4.60;;;;;10.35;100.00;97235.81;6337891;27;94308;-82
2024/04/17 03:26:31;;;;;;;;;4.00;4.00;;;;;10.23;100.00;97216.34;6284288;27;95926;-81
2024/04/17 03:29:39;;;;;;;;;4.00;3.00;;;;;9.36;100.00;97064.22;6311277;27;96332;-83
2024/04/17 03:32:42;;;;;;;;;6.50;5.00;;;;;10.06;100.00;97196.81;6308266;27;97334;-83
2024/04/17 03:35:56;;;;;;;;;4.00;3.00;;;;;10.54;100.00;97238.88;6378386;27;94779;-84
2024/04/17 03:39:02;;;;;;;;;3.00;2.50;;;;;10.07;100.00;97144.59;6341809;27;95000;-84
2024/04/17 03:42:08;;;;;;;;;3.00;2.00;;;;;9.94;100.00;97118.94;6310596;27;97692;-84
2024/04/17 03:45:17;;;;;;;;;4.00;3.00;;;;;10.62;100.00;97249.16;6295096;27;97666;-84
2024/04/17 03:48:22;;;;;;;;;2.00;2.00;;;;;10.62;100.00;97223.03;6310787;27;94840;-83
2024/04/17 03:51:28;;;;;;;;;4.00;4.00;;;;;10.26;100.00;97159.28;6308869;27;97562;-86
2024/04/17 03:54:32;;;;;;;;;3.00;3.00;;;;;10.77;100.00;97258.13;6307021;27;95580;-85
2024/04/17 03:57:37;;;;;;;;;5.60;5.60;;;;;10.38;100.00;97197.56;6279659;27;96261;-85
2024/04/17 04:00:45;;;;;;;;;6.40;6.00;;;;;10.82;100.00;97278.91;6333927;27;95044;-84
2024/04/17 04:03:48;;;;;;;;;5.40;4.60;;;;;10.83;100.00;97269.75;6325439;27;96655;-85
2024/04/17 04:06:54;;;;;;;;;5.80;5.20;;;;;10.02;100.00;97158.03;6327580;27;96256;-83
2024/04/17 04:09:57;;;;;;;;;6.40;5.80;;;;;10.78;100.00;97270.53;6325752;27;97742;-89
2024/04/17 04:13:03;;;;;;;;;7.00;6.60;;;;;10.38;100.00;97227.22;6330133;27;94420;-89
2024/04/17 04:16:10;;;;;;;;;4.00;4.00;;;;;9.96;100.00;97178.72;6286030;27;96117;-90
2024/04/17 04:19:16;;;;;;;;;4.00;4.00;;;;;10.66;100.00;97287.97;6235582;22;95034;-57
2024/04/17 04:22:19;;;;;;;;;4.50;4.00;;;;;10.68;100.00;97304.72;6239688;27;97483;-57
2024/04/17 04:25:24;;;;;;;;;7.00;5.40;;;;;10.69;100.00;97300.94;6273922;27;95027;-57
2024/04/17 04:28:27;;;;;;;;;4.00;4.00;;;;;10.80;100.00;97313.38;6251623;27;94936;-57
2024/04/17 04:31:36;;;;;;;;;5.00;4.20;;;;;10.81;100.00;97313.13;6281450;27;94438;-57
2024/04/17 04:34:39;;;;;;;;;4.75;4.75;;;;;10.82;100.00;97332.81;6273143;27;94699;-57
2024/04/17 04:37:45;;;;;;;;;5.00;5.00;;;;;10.73;100.00;97331.69;6280533;27;95549;-57
2024/04/17 04:40:51;;;;;;;;;6.40;6.40;;;;;10.69;100.00;97323.31;6274505;27;96681;-58
2024/04/17 04:43:57;;;;;;;;;4.40;4.00;;;;;10.71;100.00;97317.66;6280773;27;94950;-57
2024/04/17 04:47:03;;;;;;;;;7.00;6.00;;;;;10.81;100.00;97317.72;6283144;27;94649;-57
2024/04/17 04:50:09;;;;;;;;;6.00;6.00;;;;;10.90;100.00;97323.44;6261311;27;94680;-58
2024/04/17 04:53:15;;;;;;;;;7.60;7.00;;;;;10.97;100.00;97327.53;6257142;27;96367;-57
2024/04/17 04:56:19;;;;;;;;;7.00;6.00;;;;;11.02;100.00;97324.03;6281451;27;95556;-57
2024/04/17 04:59:25;;;;;;;;;6.00;5.60;;;;;11.06;100.00;97327.81;6279966;27;95455;-57
2024/04/17 05:02:34;;;;;;;;;6.20;6.00;;;;;11.12;100.00;97327.59;6279917;27;94488;-57
2024/04/17 05:05:40;;;;;;;;;7.00;6.60;;;;;11.15;100.00;97329.75;6257771;27;94646;-53
2024/04/17 05:08:43;;;;;;;;;5.00;5.00;;;;;11.08;100.00;97315.72;6281750;27;97540;-53
2024/04/17 05:11:50;;;;;;;;;6.00;5.00;;;;;11.19;100.00;97328.16;6297876;27;96990;-53
2024/04/17 05:14:53;;;;;;;;;6.00;5.50;;;;;11.25;100.00;97320.88;6272801;27;96012;-53
2024/04/17 05:18:01;;;;;;;;;4.25;4.25;;;;;11.29;100.00;97314.69;6262111;27;94869;-53
2024/04/17 05:21:07;;;;;;;;;5.50;5.50;;;;;11.48;100.00;97336.66;6275422;27;94992;-53
2024/04/17 05:24:10;;;;;;;;;5.50;5.50;;;;;11.54;100.00;97335.56;6302702;27;96437;-53
2024/04/17 05:27:15;;;;;;;;;5.40;5.00;;;;;11.50;100.00;97336.34;6274309;27;97886;-54
2024/04/17 05:30:18;;;;;;;;;6.00;5.00;;;;;11.58;100.00;97330.47;6317159;27;94673;-53
2024/04/17 05:33:26;;;;;;;;;5.00;4.80;;;;;11.52;100.00;97318.03;6305711;27;96548;-54
2024/04/17 05:36:29;;;;;;;;;5.80;5.00;;;;;11.68;100.00;97347.47;6263940;27;96935;-53
2024/04/17 05:39:35;;;;;;;;;6.00;5.00;;;;;11.64;100.00;97332.91;6302371;27;94438;-53
2024/04/17 05:42:38;;;;;;;;;5.00;4.50;;;;;11.77;100.00;97352.41;6273273;27;95270;-53
2024/04/17 05:45:43;;;;;;;;;4.00;4.00;;;;;11.78;100.00;97345.94;6303275;27;94754;-53
2024/04/17 05:48:49;;;;;;;;;4.00;4.00;;;;;11.75;100.00;97346.44;6252289;27;97117;-53
2024/04/17 05:51:54;;;;;;;;;6.00;4.60;;;;;11.73;100.00;97331.31;6275458;27;94437;-53
2024/04/17 05:54:57;;;;;;;;;7.00;6.00;;;;;11.73;100.00;97350.22;6273964;27;95229;-53
2024/04/17 05:58:03;;;;;;;;;7.00;7.00;;;;;11.76;100.00;97361.56;6274894;27;94577;-54
2024/04/17 06:01:06;;;;;;;;;6.00;5.40;;;;;11.65;100.00;97350.72;6302230;27;94350;-53
2024/04/17 06:04:14;;;;;;;;;6.60;5.60;;;;;11.68;100.00;97360.16;6285587;27;96935;-54
2024/04/17 06:07:17;;;;;;;;;6.80;6.00;;;;;11.66;100.00;97355.03;6263857;28;94348;-53
2024/04/17 06:10:23;;;;;;;;;7.00;6.40;;;;;11.78;100.00;97364.84;6271041;27;94387;-53
2024/04/17 06:13:29;;;;;;;;;5.00;4.60;;;;;11.86;100.00;97361.59;6305594;27;94330;-53
2024/04/17 06:16:34;;;;;;;;;5.00;4.00;;;;;11.89;100.00;97355.66;6275136;27;94754;-53
2024/04/17 06:19:43;;;;;;;;;5.20;5.20;;;;;11.96;100.00;97356.22;6264191;28;96436;-53
2024/04/17 06:22:45;;;;;;;;;6.00;6.00;;;;;12.03;100.00;97362.16;6238459;28;94355;-53
2024/04/17 06:25:51;;;;;;;;;5.75;5.00;;;;;12.02;100.00;97355.16;6237380;28;96558;-53
2024/04/17 06:28:57;;;;;;;;;6.00;6.00;;;;;12.14;100.00;97369.22;6265221;28;96459;-53
2024/04/17 06:32:02;;;;;;;;;4.20;4.20;;;;;12.06;100.00;97359.75;6239138;28;96114;-53
2024/04/17 06:35:11;;;;;;;;;4.00;4.00;;;;;12.26;100.00;97372.47;6266566;28;94324;-53
2024/04/17 06:38:16;;;;;;;;;5.60;5.60;;;;;12.29;100.00;97373.81;6264426;28;94553;-53
2024/04/17 06:41:19;;;;;;;;;7.00;5.00;;;;;12.28;100.00;97370.31;6238516;28;94510;-53
2024/04/17 06:44:25;;;;;;;;;6.80;6.00;;;;;12.37;100.00;97381.38;6261075;28;94773;-53
2024/04/17 06:47:29;;;;;;;;;6.00;6.00;;;;;12.43;100.00;97383.81;6269158;27;94281;-54
2024/04/17 06:50:37;;;;;;;;;7.00;6.00;;;;;12.46;100.00;97383.28;6237916;28;94541;-53
2024/04/17 06:53:40;;;;;;;;;6.00;5.80;;;;;12.48;100.00;97374.91;6233188;27;97580;-53
2024/04/17 06:56:47;;;;;;;;;7.00;6.00;;;;;12.49;100.00;97368.41;6236313;28;98974;-54
2024/04/17 06:59:52;;;;;;;;;6.00;6.00;;;;;12.62;100.00;97389.50;6266983;28;94385;-54
2024/04/17 07:02:55;;;;;;;;;7.80;7.00;;;;;12.61;100.00;97393.28;6255009;28;96448;-53
2024/04/17 07:06:11;;;;;;;;;8.00;7.00;;;;;12.56;100.00;97394.09;6263641;28;96652;-53
2024/04/17 07:09:17;;;;;;;;;10.50;9.00;;;;;12.59;100.00;97398.16;6264830;28;96538;-54
2024/04/17 07:12:20;;;;;;;;;9.00;8.00;;;;;12.55;100.00;97403.31;6232463;28;97003;-53
2024/04/17 07:15:26;;;;;;;;;9.00;9.00;;;;;12.48;100.00;97401.94;6237458;28;96964;-53
2024/04/17 07:18:32;;;;;;;;;10.00;9.00;;;;;12.34;100.00;97403.53;6249303;28;97100;-53
2024/04/17 07:21:40;;;;;;;;;12.00;10.75;;;;;12.25;100.00;97388.94;6261277;27;94813;-53
2024/04/17 07:24:44;;;;;;;;;15.60;13.00;;;;;12.26;100.00;97412.19;6264306;28;95907;-53
2024/04/17 07:27:49;;;;;;;;;15.25;14.00;;;;;12.18;100.00;97412.69;6242785;28;94489;-56
2024/04/17 07:30:52;;;;;;;;;11.25;11.00;;;;;12.21;100.00;97414.88;6243021;28;94348;-56
2024/04/17 07:33:59;;;;;;;;;12.80;12.20;;;;;12.03;100.00;97410.78;6240616;28;94941;-56
2024/04/17 07:37:08;;;;;;;;;16.60;15.00;;;;;12.00;100.00;97414.84;6243243;28;94327;-57
2024/04/17 07:40:14;;;;;;;;;13.00;12.00;;;;;12.02;100.00;97417.28;6230213;28;97920;-57
2024/04/17 07:43:19;;;;;;;;;16.25;15.00;;;;;11.91;100.00;97413.75;6213706;28;96001;-57
2024/04/17 07:46:26;;;;;;;;;14.40;13.40;;;;;11.83;100.00;97391.81;6238803;28;94994;-57
2024/04/17 07:49:29;;;;;;;;;16.00;14.75;;;;;11.95;100.00;97414.00;6242278;27;96450;-57
2024/04/17 07:52:37;;;;;;;;;19.00;18.00;;;;;11.99;100.00;97428.59;6245147;27;96533;-56
2024/04/17 07:55:40;;;;;;;;;18.60;16.00;;;;;12.01;100.00;97429.16;6265984;27;94688;-57
2024/04/17 07:58:46;;;;;;;;;18.00;17.40;;;;;11.87;100.00;97419.94;6264452;27;97407;-57
2024/04/17 08:01:50;;;;;;;;;17.00;16.00;;;;;11.92;100.00;97419.94;6242744;28;94702;-56
2024/04/17 08:04:56;;;;;;;;;19.50;17.00;;;;;11.98;100.00;97427.78;6243124;28;95321;-56
2024/04/17 08:08:05;;;;;;;;;22.00;19.00;;;;;11.99;100.00;97432.13;6242240;28;96777;-56
2024/04/17 08:11:08;;;;;;;;;21.00;19.00;;;;;11.89;100.00;97429.38;6241046;27;94687;-56
2024/04/17 08:14:13;;;;;;;;;19.50;17.00;;;;;11.88;100.00;97433.16;6243206;27;94391;-56
2024/04/17 08:17:16;;;;;;;;;20.40;19.00;;;;;11.87;100.00;97446.94;6240996;27;96667;-56
2024/04/17 08:20:22;;;;;;;;;20.40;18.80;;;;;11.89;100.00;97442.88;6214673;28;94960;-56
2024/04/17 08:23:31;;;;;;;;;20.60;19.60;;;;;11.94;100.00;97439.38;6241602;28;94552;-56
2024/04/17 08:26:39;;;;;;;;;19.50;19.00;;;;;12.01;100.00;97454.28;6215243;28;94864;-56
2024/04/17 08:29:45;;;;;;;;;20.20;18.00;;;;;11.93;100.00;97438.56;6240243;28;94974;-57
2024/04/17 08:32:52;;;;;;;;;23.00;21.00;;;;;12.07;100.00;97452.41;6214850;28;94535;-57
2024/04/17 08:35:56;;;;;;;;;23.00;21.00;;;;;12.11;100.00;97450.78;6242922;28;94985;-57
2024/04/17 08:39:05;;;;;;;;;23.50;22.50;;;;;11.82;100.00;97412.63;6202176;28;94834;-57
2024/04/17 08:42:15;;;;;;;;;20.80;19.00;;;;;12.07;100.00;97463.22;6187297;28;94354;-57
2024/04/17 08:45:33;;;;;;;;;22.00;21.75;;;;;12.12;100.00;97474.81;6241801;28;94575;-56
2024/04/17 08:48:53;;;;;;;;;24.60;22.60;;;;;12.19;100.00;97471.88;6215218;28;94798;-59
2024/04/17 08:52:00;;;;;;;;;23.80;20.20;;;;;12.21;100.00;97463.50;6211843;28;97279;-56
2024/04/17 08:55:09;;;;;;;;;20.60;19.00;;;;;12.20;100.00;97468.09;6213023;28;97171;-56
2024/04/17 08:58:14;;;;;;;;;17.00;15.60;;;;;12.10;100.00;97476.19;6236380;28;94468;-56
2024/04/17 09:01:22;;;;;;;;;14.20;14.00;;;;;12.08;100.00;97478.31;6243119;28;95037;-57
2024/04/17 09:04:31;;;;;;;;;13.60;13.00;;;;;12.11;100.00;97477.81;6237468;28;94746;-57
2024/04/17 09:07:37;;;;;;;;;15.75;14.00;;;;;12.06;100.00;97470.50;6213823;27;95135;-57
2024/04/17 09:10:48;;;;;;;;;13.50;12.50;;;;;12.19;100.00;97474.59;6239353;27;95423;-57
2024/04/17 09:13:54;;;;;;;;;15.00;13.00;;;;;12.50;100.00;97480.88;6239940;28;94344;-56
2024/04/17 09:17:00;;;;;;;;;12.20;12.00;;;;;12.48;100.00;97473.03;6236564;27;96556;-57
2024/04/17 09:20:05;;;;;;;;;13.40;12.40;;;;;13.02;100.00;97486.84;6241238;28;94565;-57
2024/04/17 09:23:12;;;;;;;;;14.40;13.00;;;;;13.17;100.00;97485.25;6240514;28;94449;-57
2024/04/17 09:26:19;;;;;;;;;13.00;13.00;;;;;13.34;100.00;97483.84;6240175;28;94948;-57
2024/04/17 09:29:25;;;;;;;;;12.20;11.20;;;;;13.39;100.00;97486.56;6242193;28;95183;-57
2024/04/17 09:32:29;;;;;;;;;14.00;13.40;;;;;13.30;100.00;97490.09;6238663;28;96672;-57
2024/04/17 09:35:39;;;;;;;;;14.60;14.60;;;;;13.32;100.00;97494.16;6242655;28;94615;-57
2024/04/17 09:38:42;;;;;;;;;15.00;15.00;;;;;13.46;100.00;97486.28;6239788;28;97191;-57
2024/04/17 09:41:54;;;;;;;;;15.00;15.00;;;;;13.20;100.00;97450.31;6211149;27;94826;-56
2024/04/17 09:45:03;;;;;;;;;13.60;13.60;;;;;13.33;100.00;97500.38;6188050;28;95403;-56
2024/04/17 09:48:10;;;;;;;;;17.00;16.60;;;;;13.33;100.00;97500.38;6255453;28;96468;-53
2024/04/17 09:51:22;;;;;;;;;18.00;17.00;;;;;13.23;100.00;97492.28;6262552;28;94894;-54
2024/04/17 09:54:28;;;;;;;;;20.00;18.60;;;;;13.18;100.00;97484.16;6257400;28;97245;-53
2024/04/17 09:57:38;;;;;;;;;22.75;18.75;;;;;13.11;100.00;97483.59;6261424;28;94239;-53
2024/04/17 10:00:43;;;;;;;;;17.00;15.80;;;;;13.05;100.00;97498.22;6262326;28;94664;-53
2024/04/17 10:03:50;;;;;;;;;19.20;17.20;;;;;12.89;100.00;97502.81;6262426;28;96893;-54
2024/04/17 10:06:55;;;;;;;;;21.75;19.00;;;;;12.74;100.00;97494.69;6259253;28;97154;-53
2024/04/17 10:10:03;;;;;;;;;22.40;21.00;;;;;12.62;100.00;97499.53;6246805;28;96573;-53
2024/04/17 10:13:11;;;;;;;;;19.00;19.00;;;;;12.58;100.00;97502.78;6244512;28;94551;-53
2024/04/17 10:16:20;;;;;;;;;24.00;20.20;;;;;12.58;100.00;97496.56;6195092;28;94505;-54
2024/04/17 10:19:24;;;;;;;;;29.40;23.00;;;;;12.59;100.00;97500.88;6248376;28;95114;-53
2024/04/17 10:22:32;;;;;;;;;24.60;24.40;;;;;12.55;100.00;97506.03;6259854;28;95981;-53
2024/04/17 10:25:50;;;;;;;;;27.75;24.75;;;;;12.55;100.00;97503.31;6238589;27;94496;-53
2024/04/17 10:28:59;;;;;;;;;24.00;22.20;;;;;12.69;100.00;97503.59;6228146;27;94442;-54
2024/04/17 10:32:14;;;;;;;;;22.20;20.00;;;;;12.76;100.00;97503.31;6230169;27;96481;-55
2024/04/17 10:35:19;;;;;;;;;24.00;21.00;;;;;12.83;100.00;97488.47;6245734;28;94404;-53
2024/04/17 10:38:26;;;;;;;;;21.00;19.00;;;;;12.98;100.00;97496.59;6258346;28;94529;-53
2024/04/17 10:41:40;;;;;;;;;21.80;20.00;;;;;13.16;100.00;97503.38;6229451;28;97992;-53
2024/04/17 10:44:52;;;;;;;;;24.40;21.40;;;;;13.23;100.00;97494.97;6229928;27;95169;-54
2024/04/17 10:48:03;;;;;;;;;22.00;19.40;;;;;13.25;100.00;97504.44;6261673;28;95021;-53
2024/04/17 10:51:08;;;;;;;;;20.00;18.00;;;;;13.23;100.00;97506.63;6233294;28;95816;-53
2024/04/17 10:54:15;;;;;;;;;21.00;19.00;;;;;13.08;100.00;97513.91;6247214;28;96581;-53
2024/04/17 10:57:18;;;;;;;;;20.40;19.00;;;;;12.92;100.00;97494.16;6226175;28;96705;-56
2024/04/17 11:00:27;;;;;;;;;17.80;17.00;;;;;13.04;100.00;97513.63;6243515;28;94527;-56
2024/04/17 11:03:30;;;;;;;;;16.60;16.00;;;;;13.12;100.00;97513.13;6229337;28;94363;-56
2024/04/17 11:06:38;;;;;;;;;16.00;16.00;;;;;13.11;100.00;97508.78;6201707;28;97096;-57
2024/04/17 11:09:45;;;;;;;;;19.20;17.00;;;;;13.05;100.00;97514.44;6233169;28;94717;-57
2024/04/17 11:12:49;;;;;;;;;16.20;15.00;;;;;12.90;100.00;97505.22;6229775;28;94628;-57
2024/04/17 11:15:58;;;;;;;;;19.00;17.60;;;;;12.93;100.00;97514.72;6217059;28;94920;-56
2024/04/17 11:19:02;;;;;;;;;16.00;15.00;;;;;12.82;100.00;97527.41;6258044;27;95948;-57
2024/04/17 11:22:13;;;;;;;;;16.00;15.40;;;;;12.71;100.00;97520.34;6240155;27;95362;-57
2024/04/17 11:25:16;;;;;;;;;17.40;16.00;;;;;12.54;100.00;97523.31;6263603;27;94958;-57
2024/04/17 11:28:22;;;;;;;;;17.60;16.60;;;;;12.60;100.00;97540.38;6241634;27;95184;-57
2024/04/17 11:31:29;;;;;;;;;18.00;17.40;;;;;12.53;100.00;97521.69;6243043;27;96501;-56
2024/04/17 11:34:35;;;;;;;;;21.00;18.00;;;;;12.61;100.00;97522.25;6243446;27;94610;-56
2024/04/17 11:37:41;;;;;;;;;18.40;17.40;;;;;12.75;100.00;97540.41;6241651;28;94382;-56
2024/04/17 11:40:48;;;;;;;;;21.60;18.60;;;;;12.75;100.00;97540.41;6228825;28;95399;-57
2024/04/17 11:43:52;;;;;;;;;19.00;17.40;;;;;12.70;100.00;97540.38;6204199;28;94717;-56
2024/04/17 11:47:01;;;;;;;;;19.00;19.00;;;;;12.78;100.00;97553.38;6176921;28;94735;-56
2024/04/17 11:50:08;;;;;;;;;21.00;19.00;;;;;12.92;100.00;97548.25;6233508;28;94705;-57
2024/04/17 11:53:15;;;;;;;;;21.50;17.50;;;;;12.71;100.00;97547.38;6265322;27;95394;-57
2024/04/17 11:56:18;;;;;;;;;20.40;19.00;;;;;12.78;100.00;97550.66;6243267;27;94638;-57
2024/04/17 11:59:25;;;;;;;;;19.00;18.00;;;;;12.84;100.00;97552.31;6254379;27;96568;-56
2024/04/17 12:02:34;;;;;;;;;18.00;16.40;;;;;12.85;100.00;97548.50;6202674;28;95701;-57
2024/04/17 12:05:38;;;;;;;;;20.40;18.40;;;;;12.79;100.00;97549.59;6203589;28;94788;-57
2024/04/17 12:08:44;;;;;;;;;18.80;18.40;;;;;12.59;100.00;97538.72;6322945;22;94333;-81
2024/04/17 12:11:48;;;;;;;;;19.20;18.80;;;;;12.73;100.00;97558.75;6258073;27;97765;-82
2024/04/17 12:14:55;;;;;;;;;19.40;17.40;;;;;12.53;100.00;97537.91;6310788;27;94364;-81
2024/04/17 12:18:01;;;;;;;;;18.67;17.67;;;;;12.47;100.00;97552.47;6257364;27;96810;-81
2024/04/17 12:21:08;;;;;;;;;18.80;18.00;;;;;12.72;100.00;97556.31;6261945;27;95408;-87
2024/04/17 12:24:18;;;;;;;;;17.80;16.80;;;;;12.61;100.00;97539.25;6234449;28;94393;-90
2024/04/17 12:27:26;;;;;;;;;19.20;17.00;;;;;12.76;100.00;97543.88;6210935;28;95044;-87
2024/04/17 12:30:36;;;;;;;;;16.00;15.00;;;;;12.32;100.00;97463.25;6209393;28;97888;-88
2024/04/17 12:33:45;;;;;;;;;17.80;16.40;;;;;12.78;100.00;97530.91;6208562;28;95170;-88
2024/04/17 12:36:53;;;;;;;;;17.40;14.00;;;;;12.01;100.00;97419.16;6207862;28;94380;-89
2024/04/17 12:40:00;;;;;;;;;16.00;15.00;;;;;12.49;100.00;97436.00;6235069;28;96923;-88
2024/04/17 12:43:07;;;;;;;;;16.00;14.00;;;;;12.72;100.00;97435.47;6211392;28;94378;-87
2024/04/17 12:46:14;;;;;;;;;14.00;13.00;;;;;13.52;100.00;97549.34;6200208;28;95021;-88
2024/04/17 12:49:26;;;;;;;;;14.00;13.20;;;;;13.15;100.00;97474.69;6225604;28;95876;-88
2024/04/17 12:52:36;;;;;;;;;13.00;11.00;;;;;13.52;100.00;97504.13;6225305;27;94907;-88
2024/04/17 12:55:44;;;;;;;;;13.25;12.25;;;;;12.72;100.00;97388.69;6302024;27;96521;-88
2024/04/17 12:58:51;;;;;;;;;12.25;11.75;;;;;12.89;100.00;97384.63;6287515;27;97722;-90
2024/04/17 13:01:59;;;;;;;;;12.80;12.00;;;;;13.47;100.00;97471.66;6227912;27;97645;-89
2024/04/17 13:05:09;;;;;;;;;10.80;10.80;;;;;13.11;100.00;97416.78;6270966;27;95103;-88
2024/04/17 13:08:16;;;;;;;;;11.20;10.80;;;;;13.98;100.00;97560.88;6274382;27;97379;-89
2024/04/17 13:11:23;;;;;;;;;12.00;11.00;;;;;13.49;100.00;97496.53;6267296;27;96451;-88
2024/04/17 13:14:27;;;;;;;;;11.00;10.40;;;;;13.64;100.00;97536.31;6266985;27;96526;-88
2024/04/17 13:17:33;;;;;;;;;11.00;10.00;;;;;13.66;100.00;97537.69;6282023;27;94963;-88
2024/04/17 13:20:43;;;;;;;;;11.00;10.60;;;;;13.11;100.00;97443.00;6304373;27;95080;-88
2024/04/17 13:23:47;;;;;;;;;11.60;10.60;;;;;13.84;100.00;97556.06;6293855;27;96824;-88
2024/04/17 13:26:53;;;;;;;;;11.00;10.80;;;;;13.88;100.00;97551.69;6290343;27;96893;-89
2024/04/17 13:29:58;;;;;;;;;11.00;10.40;;;;;13.72;100.00;97500.56;6270928;27;97026;-84
2024/04/17 13:33:04;;;;;;;;;12.00;10.00;;;;;14.07;100.00;97562.78;6245186;27;95912;-84
2024/04/17 13:36:14;;;;;;;;;10.00;9.00;;;;;13.67;100.00;97503.28;6287959;27;96244;-81
2024/04/17 13:39:21;;;;;;;;;11.50;9.00;;;;;13.55;100.00;97476.50;6288285;27;95473;-82
2024/04/17 13:42:27;;;;;;;;;9.60;9.00;;;;;13.74;100.00;97512.75;6290573;27;97017;-81
2024/04/17 13:45:30;;;;;;;;;10.00;9.40;;;;;13.54;100.00;97485.72;6311635;27;97768;-81
2024/04/17 13:48:37;;;;;;;;;10.80;9.20;;;;;13.84;100.00;97538.97;6265387;27;98025;-81
2024/04/17 13:51:44;;;;;;;;;9.20;8.80;;;;;13.75;100.00;97555.00;6276583;27;95044;-81
2024/04/17 13:54:50;;;;;;;;;10.00;9.40;;;;;13.20;100.00;97452.22;6282006;27;97821;-82
2024/04/17 13:57:54;;;;;;;;;8.60;8.00;;;;;13.59;100.00;97537.16;6284172;27;94978;-82
2024/04/17 14:01:01;;;;;;;;;9.00;8.00;;;;;13.22;100.00;97494.16;6306750;27;94654;-81
2024/04/17 14:04:05;;;;;;;;;8.00;8.00;;;;;13.69;100.00;97552.56;6282828;27;94834;-83
2024/04/17 14:07:14;;;;;;;;;10.00;8.75;;;;;13.35;100.00;97487.38;6302741;27;95005;-88
2024/04/17 14:10:19;;;;;;;;;9.50;9.00;;;;;13.34;100.00;97475.72;6273739;27;94891;-84
2024/04/17 14:13:27;;;;;;;;;9.00;9.00;;;;;13.80;100.00;97535.22;6254288;27;94843;-85
2024/04/17 14:16:31;;;;;;;;;8.00;7.50;;;;;14.09;100.00;97557.06;6284329;22;95262;-57
2024/04/17 14:19:37;;;;;;;;;8.00;7.20;;;;;14.14;100.00;97563.28;6289468;27;96963;-57